sensor_id;sensor_type;location;lat;lon;timestamp;pressure;altitude;pressure_sealevel;temperature;humidity
71638;BME280;59485;43.542;-5.676;2023-04-02T00:07:59;102711.78;;;10.36;100.00
71638;BME280;59485;43.542;-5.676;2023-04-02T00:11:20;102710.75;;;10.28;100.00
71638;BME280;59485;43.542;-5.676;2023-04-02T00:13:40;102702.81;;;10.25;100.00
71638;BME280;59485;43.542;-5.676;2023-04-02T00:16:11;102724.53;;;10.16;100.00
71638;BME280;59485;43.542;-5.676;2023-04-02T00:18:49;102722.41;;;10.20;100.00
71638;BME280;59485;43.542;-5.676;2023-04-02T00:21:28;102722.41;;;10.20;100.00
71638;BME280;59485;43.542;-5.676;2023-04-02T00:23:58;102732.75;;;10.16;100.00
71638;BME280;59485;43.542;-5.676;2023-04-02T00:26:37;102721.06;;;10.14;100.00
71638;BME280;59485;43.542;-5.676;2023-04-02T00:29:06;102728.56;;;10.12;100.00
71638;BME280;59485;43.542;-5.676;2023-04-02T00:31:32;102726.56;;;10.14;100.00
71638;BME280;59485;43.542;-5.676;2023-04-02T00:34:00;102741.38;;;10.12;100.00
71638;BME280;59485;43.542;-5.676;2023-04-02T00:36:29;102738.81;;;10.10;100.00
71638;BME280;59485;43.542;-5.676;2023-04-02T00:38:59;102736.06;;;10.10;100.00
71638;BME280;59485;43.542;-5.676;2023-04-02T00:41:28;102744.69;;;10.06;100.00
71638;BME280;59485;43.542;-5.676;2023-04-02T00:43:57;102740.53;;;10.11;100.00
71638;BME280;59485;43.542;-5.676;2023-04-02T00:46:32;102734.91;;;10.13;100.00
71638;BME280;59485;43.542;-5.676;2023-04-02T00:49:19;102738.47;;;10.04;100.00
71638;BME280;59485;43.542;-5.676;2023-04-02T00:51:56;102741.00;;;10.16;100.00
71638;BME280;59485;43.542;-5.676;2023-04-02T00:54:26;102746.88;;;10.12;100.00
71638;BME280;59485;43.542;-5.676;2023-04-02T00:56:56;102747.13;;;9.99;100.00
71638;BME280;59485;43.542;-5.676;2023-04-02T00:59:31;102733.69;;;9.96;100.00
71638;BME280;59485;43.542;-5.676;2023-04-02T01:04:57;102735.53;;;9.86;100.00
71638;BME280;59485;43.542;-5.676;2023-04-02T01:15:42;102736.03;;;9.70;100.00
71638;BME280;59485;43.542;-5.676;2023-04-02T01:23:17;102726.50;;;9.65;100.00
71638;BME280;59485;43.542;-5.676;2023-04-02T01:26:24;102720.59;;;9.69;100.00
71638;BME280;59485;43.542;-5.676;2023-04-02T01:31:26;102716.09;;;9.59;100.00
71638;BME280;59485;43.542;-5.676;2023-04-02T01:33:52;102724.03;;;9.62;100.00
71638;BME280;59485;43.542;-5.676;2023-04-02T01:36:40;102718.50;;;9.52;100.00
71638;BME280;59485;43.542;-5.676;2023-04-02T01:41:57;102719.63;;;9.50;100.00
71638;BME280;59485;43.542;-5.676;2023-04-02T01:44:38;102727.59;;;9.53;100.00
71638;BME280;59485;43.542;-5.676;2023-04-02T01:47:10;102729.66;;;9.39;100.00
71638;BME280;59485;43.542;-5.676;2023-04-02T01:49:36;102726.66;;;9.43;100.00
71638;BME280;59485;43.542;-5.676;2023-04-02T01:52:04;102730.41;;;9.41;100.00
71638;BME280;59485;43.542;-5.676;2023-04-02T01:54:30;102722.19;;;9.41;100.00
71638;BME280;59485;43.542;-5.676;2023-04-02T01:56:56;102724.78;;;9.43;100.00
71638;BME280;59485;43.542;-5.676;2023-04-02T01:59:23;102726.53;;;9.44;100.00
71638;BME280;59485;43.542;-5.676;2023-04-02T02:01:56;102721.19;;;9.43;100.00
71638;BME280;59485;43.542;-5.676;2023-04-02T02:04:24;102709.69;;;9.49;100.00
71638;BME280;59485;43.542;-5.676;2023-04-02T02:06:49;102716.56;;;9.43;100.00
71638;BME280;59485;43.542;-5.676;2023-04-02T02:09:24;102718.94;;;9.48;100.00
71638;BME280;59485;43.542;-5.676;2023-04-02T02:11:51;102720.38;;;9.52;100.00
71638;BME280;59485;43.542;-5.676;2023-04-02T02:14:25;102721.25;;;9.52;100.00
71638;BME280;59485;43.542;-5.676;2023-04-02T02:16:53;102715.63;;;9.54;100.00
71638;BME280;59485;43.542;-5.676;2023-04-02T02:24:56;102710.78;;;9.57;100.00
71638;BME280;59485;43.542;-5.676;2023-04-02T02:33:04;102709.59;;;9.60;100.00
71638;BME280;59485;43.542;-5.676;2023-04-02T02:41:15;102708.88;;;9.58;100.00
71638;BME280;59485;43.542;-5.676;2023-04-02T02:43:50;102703.25;;;9.59;100.00
71638;BME280;59485;43.542;-5.676;2023-04-02T02:46:19;102700.22;;;9.53;100.00
71638;BME280;59485;43.542;-5.676;2023-04-02T02:48:47;102705.44;;;9.56;100.00
71638;BME280;59485;43.542;-5.676;2023-04-02T02:51:20;102703.94;;;9.52;100.00
71638;BME280;59485;43.542;-5.676;2023-04-02T02:53:52;102703.94;;;9.52;100.00
71638;BME280;59485;43.542;-5.676;2023-04-02T02:56:21;102707.81;;;9.49;100.00
71638;BME280;59485;43.542;-5.676;2023-04-02T02:58:50;102711.41;;;9.50;100.00
71638;BME280;59485;43.542;-5.676;2023-04-02T03:01:16;102710.28;;;9.52;100.00
71638;BME280;59485;43.542;-5.676;2023-04-02T03:03:43;102706.69;;;9.52;100.00
71638;BME280;59485;43.542;-5.676;2023-04-02T03:06:14;102711.91;;;9.55;100.00
71638;BME280;59485;43.542;-5.676;2023-04-02T03:08:51;102713.63;;;9.56;100.00
71638;BME280;59485;43.542;-5.676;2023-04-02T03:11:48;102711.41;;;9.50;100.00
71638;BME280;59485;43.542;-5.676;2023-04-02T03:14:22;102696.59;;;9.52;100.00
71638;BME280;59485;43.542;-5.676;2023-04-02T03:16:58;102705.44;;;9.56;100.00
71638;BME280;59485;43.542;-5.676;2023-04-02T03:19:30;102693.88;;;9.52;100.00
71638;BME280;59485;43.542;-5.676;2023-04-02T03:22:13;102700.66;;;9.58;100.00
71638;BME280;59485;43.542;-5.676;2023-04-02T03:25:01;102700.53;;;9.59;100.00
71638;BME280;59485;43.542;-5.676;2023-04-02T03:27:35;102710.22;;;9.63;100.00
71638;BME280;59485;43.542;-5.676;2023-04-02T03:32:56;102708.75;;;9.59;100.00
71638;BME280;59485;43.542;-5.676;2023-04-02T03:38:21;102706.47;;;9.64;100.00
71638;BME280;59485;43.542;-5.676;2023-04-02T03:43:24;102712.09;;;9.63;100.00
71638;BME280;59485;43.542;-5.676;2023-04-02T03:45:54;102716.38;;;9.56;100.00
71638;BME280;59485;43.542;-5.676;2023-04-02T03:48:32;102710.47;;;9.60;100.00
71638;BME280;59485;43.542;-5.676;2023-04-02T03:51:06;102716.63;;;9.53;100.00
71638;BME280;59485;43.542;-5.676;2023-04-02T03:53:37;102707.25;;;9.46;100.00
71638;BME280;59485;43.542;-5.676;2023-04-02T03:56:04;102715.16;;;9.49;100.00
71638;BME280;59485;43.542;-5.676;2023-04-02T03:58:45;102703.22;;;9.50;100.00
71638;BME280;59485;43.542;-5.676;2023-04-02T04:03:52;102708.50;;;9.41;100.00
71638;BME280;59485;43.542;-5.676;2023-04-02T04:07:03;102709.91;;;9.36;100.00
71638;BME280;59485;43.542;-5.676;2023-04-02T04:12:06;102710.00;;;9.25;100.00
71638;BME280;59485;43.542;-5.676;2023-04-02T04:14:36;102707.25;;;9.25;100.00
71638;BME280;59485;43.542;-5.676;2023-04-02T04:17:10;102713.13;;;9.20;100.00
71638;BME280;59485;43.542;-5.676;2023-04-02T04:19:46;102698.84;;;9.17;100.00
71638;BME280;59485;43.542;-5.676;2023-04-02T04:22:26;102715.81;;;9.11;100.00
71638;BME280;59485;43.542;-5.676;2023-04-02T04:24:58;102708.47;;;9.11;100.00
71638;BME280;59485;43.542;-5.676;2023-04-02T04:27:32;102709.34;;;9.12;100.00
71638;BME280;59485;43.542;-5.676;2023-04-02T04:30:05;102705.44;;;9.14;100.00
71638;BME280;59485;43.542;-5.676;2023-04-02T04:32:47;102705.00;;;9.09;100.00
71638;BME280;59485;43.542;-5.676;2023-04-02T04:38:44;102708.59;;;9.10;100.00
71638;BME280;59485;43.542;-5.676;2023-04-02T04:40:54;102704.00;;;9.10;100.00
71638;BME280;59485;43.542;-5.676;2023-04-02T04:43:32;102712.47;;;9.07;100.00
71638;BME280;59485;43.542;-5.676;2023-04-02T04:46:07;102708.47;;;9.11;100.00
71638;BME280;59485;43.542;-5.676;2023-04-02T04:48:45;102708.06;;;9.16;100.00
71638;BME280;59485;43.542;-5.676;2023-04-02T04:51:20;102707.19;;;9.15;100.00
71638;BME280;59485;43.542;-5.676;2023-04-02T04:53:50;102701.13;;;9.12;100.00
71638;BME280;59485;43.542;-5.676;2023-04-02T04:56:23;102703.56;;;9.15;100.00
71638;BME280;59485;43.542;-5.676;2023-04-02T05:02:05;102714.94;;;9.10;100.00
71638;BME280;59485;43.542;-5.676;2023-04-02T05:04:36;102717.94;;;9.07;100.00
71638;BME280;59485;43.542;-5.676;2023-04-02T05:07:19;102710.91;;;9.14;100.00
71638;BME280;59485;43.542;-5.676;2023-04-02T05:10:13;102710.91;;;9.14;100.00
71638;BME280;59485;43.542;-5.676;2023-04-02T05:13:14;102705.44;;;9.14;100.00
71638;BME280;59485;43.542;-5.676;2023-04-02T05:18:27;102700.72;;;9.16;100.00
71638;BME280;59485;43.542;-5.676;2023-04-02T05:21:21;102700.03;;;9.24;100.00
71638;BME280;59485;43.542;-5.676;2023-04-02T05:27:30;102706.38;;;9.24;100.00
71638;BME280;59485;43.542;-5.676;2023-04-02T05:30:06;102710.41;;;9.20;100.00
71638;BME280;59485;43.542;-5.676;2023-04-02T05:32:39;102714.72;;;9.23;100.00
71638;BME280;59485;43.542;-5.676;2023-04-02T05:35:05;102726.28;;;9.26;100.00
71638;BME280;59485;43.542;-5.676;2023-04-02T05:37:32;102725.16;;;9.29;100.00
71638;BME280;59485;43.542;-5.676;2023-04-02T05:40:09;102718.81;;;9.28;100.00
71638;BME280;59485;43.542;-5.676;2023-04-02T05:42:38;102731.19;;;9.32;100.00
71638;BME280;59485;43.542;-5.676;2023-04-02T05:48:01;102734.41;;;9.37;100.00
71638;BME280;59485;43.542;-5.676;2023-04-02T05:50:33;102735.28;;;9.38;100.00
71638;BME280;59485;43.542;-5.676;2023-04-02T05:53:28;102737.28;;;9.36;100.00
71638;BME280;59485;43.542;-5.676;2023-04-02T05:58:39;102736.63;;;9.44;100.00
71638;BME280;59485;43.542;-5.676;2023-04-02T06:01:14;102745.25;;;9.39;100.00
71638;BME280;59485;43.542;-5.676;2023-04-02T06:06:18;102749.31;;;9.45;100.00
71638;BME280;59485;43.542;-5.676;2023-04-02T06:08:54;102751.44;;;9.41;100.00
71638;BME280;59485;43.542;-5.676;2023-04-02T06:11:37;102757.19;;;9.38;100.00
71638;BME280;59485;43.542;-5.676;2023-04-02T06:14:10;102753.28;;;9.40;100.00
71638;BME280;59485;43.542;-5.676;2023-04-02T06:16:36;102750.16;;;9.45;100.00
71638;BME280;59485;43.542;-5.676;2023-04-02T06:19:10;102756.03;;;9.40;100.00
71638;BME280;59485;43.542;-5.676;2023-04-02T06:21:45;102754.28;;;9.39;100.00
71638;BME280;59485;43.542;-5.676;2023-04-02T06:24:15;102755.31;;;9.38;100.00
71638;BME280;59485;43.542;-5.676;2023-04-02T06:26:46;102756.31;;;9.37;100.00
71638;BME280;59485;43.542;-5.676;2023-04-02T06:29:17;102765.72;;;9.45;100.00
71638;BME280;59485;43.542;-5.676;2023-04-02T06:32:01;102764.72;;;9.46;100.00
71638;BME280;59485;43.542;-5.676;2023-04-02T06:34:28;102766.41;;;9.37;100.00
71638;BME280;59485;43.542;-5.676;2023-04-02T06:37:13;102779.41;;;9.45;100.00
71638;BME280;59485;43.542;-5.676;2023-04-02T06:39:41;102768.03;;;9.49;100.00
71638;BME280;59485;43.542;-5.676;2023-04-02T06:42:13;102778.28;;;9.47;100.00
71638;BME280;59485;43.542;-5.676;2023-04-02T06:44:41;102764.84;;;9.44;100.00
71638;BME280;59485;43.542;-5.676;2023-04-02T06:47:31;102775.38;;;9.49;100.00
71638;BME280;59485;43.542;-5.676;2023-04-02T06:50:15;102769.91;;;9.49;100.00
71638;BME280;59485;43.542;-5.676;2023-04-02T06:52:49;102773.25;;;9.52;100.00
71638;BME280;59485;43.542;-5.676;2023-04-02T06:55:33;102763.78;;;9.56;100.00
71638;BME280;59485;43.542;-5.676;2023-04-02T06:58:03;102769.66;;;9.52;100.00
71638;BME280;59485;43.542;-5.676;2023-04-02T07:00:43;102773.38;;;9.51;100.00
71638;BME280;59485;43.542;-5.676;2023-04-02T07:05:53;102778.91;;;9.60;100.00
71638;BME280;59485;43.542;-5.676;2023-04-02T07:08:24;102783.28;;;9.63;100.00
71638;BME280;59485;43.542;-5.676;2023-04-02T07:10:50;102788.00;;;9.61;100.00
71638;BME280;59485;43.542;-5.676;2023-04-02T07:13:18;102795.22;;;9.62;100.00
71638;BME280;59485;43.542;-5.676;2023-04-02T07:15:51;102804.31;;;9.62;100.00
71638;BME280;59485;43.542;-5.676;2023-04-02T07:18:32;102801.69;;;9.61;100.00
71638;BME280;59485;43.542;-5.676;2023-04-02T07:20:58;102806.44;;;9.59;100.00
71638;BME280;59485;43.542;-5.676;2023-04-02T07:23:25;102809.53;;;9.65;100.00
71638;BME280;59485;43.542;-5.676;2023-04-02T07:25:55;102799.03;;;9.70;100.00
71638;BME280;59485;43.542;-5.676;2023-04-02T07:28:21;102800.03;;;9.69;100.00
71638;BME280;59485;43.542;-5.676;2023-04-02T07:30:47;102802.50;;;9.72;100.00
71638;BME280;59485;43.542;-5.676;2023-04-02T07:33:18;102801.22;;;9.76;100.00
71638;BME280;59485;43.542;-5.676;2023-04-02T07:35:45;102802.69;;;9.81;100.00
71638;BME280;59485;43.542;-5.676;2023-04-02T07:38:11;102804.13;;;9.85;100.00
71638;BME280;59485;43.542;-5.676;2023-04-02T07:40:36;102809.41;;;9.97;100.00
71638;BME280;59485;43.542;-5.676;2023-04-02T07:43:03;102805.94;;;9.95;100.00
71638;BME280;59485;43.542;-5.676;2023-04-02T07:45:29;102800.53;;;10.14;100.00
71638;BME280;59485;43.542;-5.676;2023-04-02T07:47:55;102800.00;;;10.21;100.00
71638;BME280;59485;43.542;-5.676;2023-04-02T07:50:21;102802.66;;;10.32;100.00
71638;BME280;59485;43.542;-5.676;2023-04-02T07:52:47;102797.25;;;10.51;100.00
71638;BME280;59485;43.542;-5.676;2023-04-02T07:55:14;102799.69;;;10.44;100.00
71638;BME280;59485;43.542;-5.676;2023-04-02T07:57:49;102804.88;;;10.57;100.00
71638;BME280;59485;43.542;-5.676;2023-04-02T08:00:16;102809.94;;;10.52;100.00
71638;BME280;59485;43.542;-5.676;2023-04-02T08:02:42;102806.19;;;10.53;100.00
71638;BME280;59485;43.542;-5.676;2023-04-02T08:05:08;102801.00;;;10.60;100.00
71638;BME280;59485;43.542;-5.676;2023-04-02T08:07:35;102806.63;;;10.58;100.00
71638;BME280;59485;43.542;-5.676;2023-04-02T08:10:02;102806.78;;;10.66;100.00
71638;BME280;59485;43.542;-5.676;2023-04-02T08:12:28;102820.50;;;10.66;100.00
71638;BME280;59485;43.542;-5.676;2023-04-02T08:14:53;102811.16;;;10.78;100.00
71638;BME280;59485;43.542;-5.676;2023-04-02T08:17:19;102808.44;;;10.88;100.00
71638;BME280;59485;43.542;-5.676;2023-04-02T08:19:44;102816.22;;;10.93;100.00
71638;BME280;59485;43.542;-5.676;2023-04-02T08:22:10;102812.47;;;10.94;100.00
71638;BME280;59485;43.542;-5.676;2023-04-02T08:24:36;102812.31;;;10.95;100.00
71638;BME280;59485;43.542;-5.676;2023-04-02T08:27:01;102807.13;;;11.02;100.00
71638;BME280;59485;43.542;-5.676;2023-04-02T08:29:27;102803.09;;;11.06;100.00
71638;BME280;59485;43.542;-5.676;2023-04-02T08:31:59;102791.38;;;11.04;100.00
71638;BME280;59485;43.542;-5.676;2023-04-02T08:34:25;102796.00;;;11.13;100.00
71638;BME280;59485;43.542;-5.676;2023-04-02T08:36:55;102791.81;;;11.18;100.00
71638;BME280;59485;43.542;-5.676;2023-04-02T08:39:21;102808.88;;;11.32;100.00
71638;BME280;59485;43.542;-5.676;2023-04-02T08:47:16;102805.09;;;11.42;100.00
71638;BME280;59485;43.542;-5.676;2023-04-02T08:52:36;102797.84;;;11.60;100.00
71638;BME280;59485;43.542;-5.676;2023-04-02T08:55:04;102801.63;;;11.59;100.00
71638;BME280;59485;43.542;-5.676;2023-04-02T08:57:51;102815.06;;;11.62;100.00
71638;BME280;59485;43.542;-5.676;2023-04-02T09:00:39;102804.47;;;11.68;100.00
71638;BME280;59485;43.542;-5.676;2023-04-02T09:05:43;102808.22;;;11.86;100.00
71638;BME280;59485;43.542;-5.676;2023-04-02T09:08:20;102814.88;;;11.93;100.00
71638;BME280;59485;43.542;-5.676;2023-04-02T09:13:41;102818.84;;;12.08;100.00
71638;BME280;59485;43.542;-5.676;2023-04-02T09:16:16;102819.28;;;12.13;100.00
71638;BME280;59485;43.542;-5.676;2023-04-02T09:18:43;102824.28;;;12.27;100.00
71638;BME280;59485;43.542;-5.676;2023-04-02T09:21:35;102825.16;;;12.28;100.00
71638;BME280;59485;43.542;-5.676;2023-04-02T09:24:03;102833.22;;;12.39;100.00
71638;BME280;59485;43.542;-5.676;2023-04-02T09:26:31;102842.44;;;12.48;100.00
71638;BME280;59485;43.542;-5.676;2023-04-02T09:31:38;102842.25;;;12.59;100.00
71638;BME280;59485;43.542;-5.676;2023-04-02T09:34:26;102845.19;;;12.75;100.00
71638;BME280;59485;43.542;-5.676;2023-04-02T09:36:54;102852.97;;;12.79;100.00
71638;BME280;59485;43.542;-5.676;2023-04-02T09:39:24;102848.03;;;12.83;100.00
71638;BME280;59485;43.542;-5.676;2023-04-02T09:41:51;102851.50;;;12.85;100.00
71638;BME280;59485;43.542;-5.676;2023-04-02T09:44:25;102843.03;;;12.96;100.00
71638;BME280;59485;43.542;-5.676;2023-04-02T09:49:23;102849.84;;;13.20;100.00
71638;BME280;59485;43.542;-5.676;2023-04-02T09:52:15;102857.97;;;13.11;100.00
71638;BME280;59485;43.542;-5.676;2023-04-02T09:54:42;102855.03;;;13.23;100.00
71638;BME280;59485;43.542;-5.676;2023-04-02T09:57:19;102854.56;;;13.27;100.00
71638;BME280;59485;43.542;-5.676;2023-04-02T10:00:07;102861.81;;;13.28;100.00
71638;BME280;59485;43.542;-5.676;2023-04-02T10:02:35;102853.31;;;13.39;100.00
71638;BME280;59485;43.542;-5.676;2023-04-02T10:05:05;102851.50;;;13.48;100.00
71638;BME280;59485;43.542;-5.676;2023-04-02T10:07:43;102856.44;;;13.27;100.00
71638;BME280;59485;43.542;-5.676;2023-04-02T10:10:48;102870.44;;;13.33;100.00
71638;BME280;59485;43.542;-5.676;2023-04-02T10:21:05;102890.22;;;13.01;100.00
71638;BME280;59485;43.542;-5.676;2023-04-02T10:23:31;102887.41;;;13.11;100.00
71638;BME280;59485;43.542;-5.676;2023-04-02T10:32:12;102904.78;;;12.57;100.00
71638;BME280;59485;43.542;-5.676;2023-04-02T10:40:02;102910.06;;;12.40;100.00
71638;BME280;59485;43.542;-5.676;2023-04-02T10:48:15;102919.84;;;12.53;100.00
71638;BME280;59485;43.542;-5.676;2023-04-02T10:50:51;102912.69;;;12.79;100.00
71638;BME280;59485;43.542;-5.676;2023-04-02T10:53:21;102907.38;;;12.95;100.00
71638;BME280;59485;43.542;-5.676;2023-04-02T10:55:59;102910.06;;;13.05;100.00
71638;BME280;59485;43.542;-5.676;2023-04-02T10:58:30;102907.38;;;13.23;100.00
71638;BME280;59485;43.542;-5.676;2023-04-02T11:01:02;102905.66;;;13.39;100.00
71638;BME280;59485;43.542;-5.676;2023-04-02T11:03:47;102906.03;;;13.44;100.00
71638;BME280;59485;43.542;-5.676;2023-04-02T11:06:24;102910.59;;;13.53;100.00
71638;BME280;59485;43.542;-5.676;2023-04-02T11:08:58;102902.56;;;13.60;100.00
71638;BME280;59485;43.542;-5.676;2023-04-02T11:11:29;102897.03;;;13.60;100.00
71638;BME280;59485;43.542;-5.676;2023-04-02T11:16:27;102898.69;;;13.71;100.00
71638;BME280;59485;43.542;-5.676;2023-04-02T11:22:14;102908.25;;;13.41;100.00
71638;BME280;59485;43.542;-5.676;2023-04-02T11:24:44;102905.44;;;13.50;100.00
71638;BME280;59485;43.542;-5.676;2023-04-02T11:32:30;102901.38;;;13.00;100.00
71638;BME280;59485;43.542;-5.676;2023-04-02T11:34:58;102895.16;;;12.98;100.00
71638;BME280;59485;43.542;-5.676;2023-04-02T11:37:44;102894.91;;;12.91;100.00
71638;BME280;59485;43.542;-5.676;2023-04-02T11:42:48;102898.69;;;12.90;100.00
71638;BME280;59485;43.542;-5.676;2023-04-02T11:50:40;102903.06;;;12.56;100.00
71638;BME280;59485;43.542;-5.676;2023-04-02T11:55:39;102891.16;;;12.92;100.00
71638;BME280;59485;43.542;-5.676;2023-04-02T12:11:39;102880.69;;;13.41;100.00
71638;BME280;59485;43.542;-5.676;2023-04-02T12:14:42;102870.69;;;13.58;100.00
71638;BME280;59485;43.542;-5.676;2023-04-02T12:17:27;102873.44;;;13.75;100.00
71638;BME280;59485;43.542;-5.676;2023-04-02T12:19:56;102871.03;;;13.80;100.00
71638;BME280;59485;43.542;-5.676;2023-04-02T12:22:24;102860.94;;;14.15;100.00
71638;BME280;59485;43.542;-5.676;2023-04-02T12:24:54;102860.03;;;14.06;100.00
71638;BME280;59485;43.542;-5.676;2023-04-02T12:27:24;102862.72;;;13.98;100.00
71638;BME280;59485;43.542;-5.676;2023-04-02T12:29:53;102863.38;;;13.66;100.00
71638;BME280;59485;43.542;-5.676;2023-04-02T12:32:28;102861.19;;;13.78;100.00
71638;BME280;59485;43.542;-5.676;2023-04-02T12:34:55;102862.72;;;13.72;100.00
71638;BME280;59485;43.542;-5.676;2023-04-02T12:37:26;102856.53;;;13.78;100.00
71638;BME280;59485;43.542;-5.676;2023-04-02T12:39:58;102858.56;;;13.68;100.00
71638;BME280;59485;43.542;-5.676;2023-04-02T12:42:35;102871.03;;;13.80;100.00
71638;BME280;59485;43.542;-5.676;2023-04-02T12:45:03;102864.03;;;13.86;100.00
71638;BME280;59485;43.542;-5.676;2023-04-02T12:47:30;102860.03;;;13.80;100.00
71638;BME280;59485;43.542;-5.676;2023-04-02T12:49:57;102853.72;;;13.70;100.00
71638;BME280;59485;43.542;-5.676;2023-04-02T12:52:25;102859.25;;;13.70;100.00
71638;BME280;59485;43.542;-5.676;2023-04-02T12:54:55;102860.50;;;13.76;100.00
71638;BME280;59485;43.542;-5.676;2023-04-02T12:59:55;102854.28;;;13.74;100.00
71638;BME280;59485;43.542;-5.676;2023-04-02T13:02:40;102846.38;;;13.79;100.00
71638;BME280;59485;43.542;-5.676;2023-04-02T13:05:08;102848.03;;;13.89;100.00
71638;BME280;59485;43.542;-5.676;2023-04-02T13:07:34;102847.41;;;13.96;100.00
71638;BME280;59485;43.542;-5.676;2023-04-02T13:10:43;102845.88;;;14.01;100.00
71638;BME280;59485;43.542;-5.676;2023-04-02T13:12:57;102847.41;;;13.96;100.00
71638;BME280;59485;43.542;-5.676;2023-04-02T13:15:27;102837.88;;;13.90;100.00
71638;BME280;59485;43.542;-5.676;2023-04-02T13:20:36;102840.19;;;14.03;100.00
71638;BME280;59485;43.542;-5.676;2023-04-02T13:25:47;102845.06;;;14.09;100.00
71638;BME280;59485;43.542;-5.676;2023-04-02T13:28:13;102836.03;;;13.99;100.00
71638;BME280;59485;43.542;-5.676;2023-04-02T13:30:39;102840.50;;;14.00;100.00
71638;BME280;59485;43.542;-5.676;2023-04-02T13:33:05;102839.44;;;13.93;100.00
71638;BME280;59485;43.542;-5.676;2023-04-02T13:35:31;102832.81;;;14.03;100.00
71638;BME280;59485;43.542;-5.676;2023-04-02T13:37:57;102836.72;;;14.01;100.00
71638;BME280;59485;43.542;-5.676;2023-04-02T13:40:27;102838.56;;;13.92;100.00
71638;BME280;59485;43.542;-5.676;2023-04-02T13:42:53;102839.59;;;13.91;100.00
71638;BME280;59485;43.542;-5.676;2023-04-02T13:45:26;102835.38;;;13.79;100.00
71638;BME280;59485;43.542;-5.676;2023-04-02T13:47:53;102837.03;;;13.72;100.00
71638;BME280;59485;43.542;-5.676;2023-04-02T13:50:21;102832.44;;;13.80;100.00
71638;BME280;59485;43.542;-5.676;2023-04-02T13:52:49;102828.97;;;13.78;100.00
71638;BME280;59485;43.542;-5.676;2023-04-02T13:55:16;102830.91;;;14.04;100.00
71638;BME280;59485;43.542;-5.676;2023-04-02T13:57:42;102823.19;;;14.15;100.00
71638;BME280;59485;43.542;-5.676;2023-04-02T14:00:11;102820.34;;;14.33;100.00
71638;BME280;59485;43.542;-5.676;2023-04-02T14:02:44;102823.13;;;14.33;100.00
71638;BME280;59485;43.542;-5.676;2023-04-02T14:11:17;102802.22;;;14.56;100.00
71638;BME280;59485;43.542;-5.676;2023-04-02T14:13:44;102796.28;;;14.43;100.00
71638;BME280;59485;43.542;-5.676;2023-04-02T14:32:38;102758.44;;;14.70;100.00
71638;BME280;59485;43.542;-5.676;2023-04-02T14:37:56;102757.94;;;14.66;100.00
71638;BME280;59485;43.542;-5.676;2023-04-02T14:43:07;102749.25;;;14.53;100.00
71638;BME280;59485;43.542;-5.676;2023-04-02T14:48:45;102742.53;;;14.55;100.00
71638;BME280;59485;43.542;-5.676;2023-04-02T14:54:08;102734.59;;;14.52;100.00
71638;BME280;59485;43.542;-5.676;2023-04-02T14:56:46;102740.97;;;14.53;100.00
71638;BME280;59485;43.542;-5.676;2023-04-02T15:01:48;102728.88;;;14.46;100.00
71638;BME280;59485;43.542;-5.676;2023-04-02T15:04:42;102736.00;;;14.64;100.00
71638;BME280;59485;43.542;-5.676;2023-04-02T15:07:30;102727.56;;;14.74;100.00
71638;BME280;59485;43.542;-5.676;2023-04-02T15:10:06;102729.59;;;14.56;100.00
71638;BME280;59485;43.542;-5.676;2023-04-02T15:12:36;102725.84;;;14.73;100.00
71638;BME280;59485;43.542;-5.676;2023-04-02T15:15:18;102724.66;;;14.92;100.00
71638;BME280;59485;43.542;-5.676;2023-04-02T15:17:44;102727.94;;;15.03;100.00
71638;BME280;59485;43.542;-5.676;2023-04-02T15:20:17;102729.47;;;15.30;100.00
71638;BME280;59485;43.542;-5.676;2023-04-02T15:25:36;102723.13;;;15.30;100.00
71638;BME280;59485;43.542;-5.676;2023-04-02T15:28:21;102715.25;;;15.90;100.00
71638;BME280;59485;43.542;-5.676;2023-04-02T15:30:55;102725.44;;;15.90;100.00
71638;BME280;59485;43.542;-5.676;2023-04-02T15:35:59;102715.59;;;15.87;100.00
71638;BME280;59485;43.542;-5.676;2023-04-02T15:38:37;102705.41;;;16.27;100.00
71638;BME280;59485;43.542;-5.676;2023-04-02T15:44:12;102713.03;;;16.64;100.00
71638;BME280;59485;43.542;-5.676;2023-04-02T15:46:48;102705.41;;;16.88;100.00
71638;BME280;59485;43.542;-5.676;2023-04-02T15:49:41;102706.31;;;17.41;100.00
71638;BME280;59485;43.542;-5.676;2023-04-02T15:52:23;102709.06;;;17.04;100.00
71638;BME280;59485;43.542;-5.676;2023-04-02T15:55:06;102704.94;;;16.77;100.00
71638;BME280;59485;43.542;-5.676;2023-04-02T15:57:40;102710.66;;;17.21;100.00
71638;BME280;59485;43.542;-5.676;2023-04-02T16:05:38;102701.19;;;17.15;100.00
71638;BME280;59485;43.542;-5.676;2023-04-02T16:08:30;102697.78;;;17.66;100.00
71638;BME280;59485;43.542;-5.676;2023-04-02T16:11:00;102700.06;;;17.77;100.00
71638;BME280;59485;43.542;-5.676;2023-04-02T16:19:32;102698.94;;;17.71;100.00
71638;BME280;59485;43.542;-5.676;2023-04-02T16:27:39;102687.34;;;17.30;100.00
71638;BME280;59485;43.542;-5.676;2023-04-02T16:30:31;102693.00;;;17.74;100.00
71638;BME280;59485;43.542;-5.676;2023-04-02T16:43:54;102674.16;;;17.17;100.00
71638;BME280;59485;43.542;-5.676;2023-04-02T16:49:39;102677.38;;;17.06;100.00
71638;BME280;59485;43.542;-5.676;2023-04-02T16:54:52;102671.13;;;17.56;100.00
71638;BME280;59485;43.542;-5.676;2023-04-02T17:00:33;102674.97;;;17.55;100.00
71638;BME280;59485;43.542;-5.676;2023-04-02T17:08:34;102684.41;;;17.46;100.00
71638;BME280;59485;43.542;-5.676;2023-04-02T17:11:11;102683.47;;;17.39;100.00
71638;BME280;59485;43.542;-5.676;2023-04-02T17:13:47;102686.81;;;17.49;100.00
71638;BME280;59485;43.542;-5.676;2023-04-02T17:16:34;102688.59;;;17.27;100.00
71638;BME280;59485;43.542;-5.676;2023-04-02T17:19:00;102691.69;;;17.10;100.00
71638;BME280;59485;43.542;-5.676;2023-04-02T17:21:28;102693.69;;;17.01;100.00